createdAt,value
2023-04-11T00:02:09.684Z,101058.31
2023-04-11T00:04:23.879Z,101062.31
2023-04-11T00:06:36.630Z,101057.61
2023-04-11T00:08:49.487Z,101058.16
2023-04-11T00:11:03.681Z,101059.82
2023-04-11T00:13:16.441Z,101054.73
2023-04-11T00:15:33.766Z,101055.34
2023-04-11T00:17:46.838Z,101060.95
2023-04-11T00:20:02.777Z,101063.58
2023-04-11T00:22:17.272Z,101072.02
2023-04-11T00:24:29.865Z,101080.34
2023-04-11T00:26:42.764Z,101079.70
2023-04-11T00:28:56.326Z,101077.11
2023-04-11T00:31:10.463Z,101071.77
2023-04-11T00:33:23.341Z,101067.73
2023-04-11T00:35:39.066Z,101062.45
2023-04-11T00:37:57.042Z,101056.70
2023-04-11T00:40:13.391Z,101054.94
2023-04-11T00:42:26.437Z,101062.88
2023-04-11T00:44:39.113Z,101070.41
2023-04-11T00:46:52.315Z,101078.57
2023-04-11T00:49:05.522Z,101080.35
2023-04-11T00:51:19.168Z,101072.59
2023-04-11T00:53:33.932Z,101067.80
2023-04-11T00:55:46.828Z,101070.02
2023-04-11T00:57:59.948Z,101064.02
2023-04-11T01:00:14.464Z,101064.89
2023-04-11T01:02:27.908Z,101069.59
2023-04-11T01:04:41.393Z,101072.80
2023-04-11T01:06:57.581Z,101063.41
2023-04-11T01:09:10.318Z,101063.56
2023-04-11T01:11:23.692Z,101062.21
2023-04-11T01:13:37.661Z,101074.73
2023-04-11T01:15:50.343Z,101071.65
2023-04-11T01:18:03.235Z,101066.64
2023-04-11T01:20:17.030Z,101064.61
2023-04-11T01:22:31.444Z,101068.19
2023-04-11T01:24:45.011Z,101083.33
2023-04-11T01:26:57.931Z,101087.07
2023-04-11T01:29:13.414Z,101082.80
2023-04-11T01:31:26.095Z,101081.34
2023-04-11T01:33:38.904Z,101081.95
2023-04-11T01:35:51.749Z,101084.14
2023-04-11T01:38:06.512Z,101073.89
2023-04-11T01:40:20.351Z,101069.70
2023-04-11T01:42:34.008Z,101073.80
2023-04-11T01:44:47.628Z,101081.98
2023-04-11T01:47:00.605Z,101086.94
2023-04-11T01:49:16.664Z,101092.31
2023-04-11T01:51:30.241Z,101092.99
2023-04-11T01:53:43.211Z,101088.64
2023-04-11T01:55:56.238Z,101090.57
2023-04-11T01:58:09.071Z,101101.38
2023-04-11T02:00:23.208Z,101116.00
2023-04-11T02:02:37.033Z,101116.66
2023-04-11T02:04:50.011Z,101111.88
2023-04-11T02:07:02.734Z,101111.88
2023-04-11T02:09:15.841Z,101117.74
2023-04-11T02:11:28.654Z,101125.23
2023-04-11T02:13:41.547Z,101114.32
2023-04-11T02:15:54.150Z,101108.44
2023-04-11T02:18:06.925Z,101102.23
2023-04-11T02:20:20.304Z,101103.31
2023-04-11T02:22:32.929Z,101104.02
2023-04-11T02:24:47.637Z,101107.58
2023-04-11T02:27:00.235Z,101106.73
2023-04-11T02:29:13.169Z,101104.63
2023-04-11T02:31:26.059Z,101107.89
2023-04-11T02:33:39.071Z,101103.42
2023-04-11T02:35:51.850Z,101107.42
2023-04-11T02:38:05.214Z,101107.42
2023-04-11T02:40:19.505Z,101110.73
2023-04-11T02:42:32.040Z,101115.36
2023-04-11T02:44:44.815Z,101106.02
2023-04-11T02:46:57.617Z,101094.46
2023-04-11T02:49:10.984Z,101086.95
2023-04-11T02:51:24.239Z,101088.36
2023-04-11T02:53:37.481Z,101090.80
2023-04-11T02:55:50.458Z,101087.45
2023-04-11T02:58:03.492Z,101092.25
2023-04-11T03:00:17.976Z,101113.33
2023-04-11T03:02:34.798Z,101120.23
2023-04-11T03:04:49.891Z,101135.65
2023-04-11T03:07:04.277Z,101145.23
2023-04-11T03:09:17.061Z,101152.30
2023-04-11T03:11:32.061Z,101151.66
2023-04-11T03:13:46.196Z,101148.77
2023-04-11T03:15:59.219Z,101152.38
2023-04-11T03:18:14.734Z,101151.48
2023-04-11T03:20:29.922Z,101162.95
2023-04-11T03:22:43.008Z,101167.46
2023-04-11T03:24:56.576Z,101174.47
2023-04-11T03:27:10.516Z,101177.45
2023-04-11T03:29:24.307Z,101177.42
2023-04-11T03:31:45.536Z,101183.39
2023-04-11T03:34:00.388Z,101185.77
2023-04-11T03:36:14.154Z,101176.71
2023-04-11T03:38:27.200Z,101164.73
2023-04-11T03:40:40.047Z,101165.60
2023-04-11T03:43:04.700Z,101168.80
2023-04-11T03:45:22.906Z,101169.65
2023-04-11T03:47:36.832Z,101177.04
2023-04-11T03:49:51.879Z,101190.59
2023-04-11T03:52:06.001Z,101189.49
2023-04-11T03:54:27.459Z,101185.55
2023-04-11T03:56:59.220Z,101178.14
2023-04-11T03:59:13.309Z,101172.95
2023-04-11T04:01:39.281Z,101181.23
2023-04-11T04:03:52.318Z,101180.52
2023-04-11T04:06:05.535Z,101184.91
2023-04-11T04:08:18.551Z,101181.73
2023-04-11T04:10:34.787Z,101186.42
2023-04-11T04:12:47.736Z,101198.39
2023-04-11T04:15:05.485Z,101192.36
2023-04-11T04:17:19.380Z,101193.45
2023-04-11T04:19:32.925Z,101195.79
2023-04-11T04:21:47.053Z,101198.30
2023-04-11T04:24:04.882Z,101203.40
2023-04-11T04:26:33.889Z,101207.56
2023-04-11T04:29:05.970Z,101204.61
2023-04-11T04:31:36.336Z,101212.47
2023-04-11T04:33:54.087Z,101223.27
2023-04-11T04:36:13.410Z,101231.79
2023-04-11T04:38:27.149Z,101231.48
2023-04-11T04:40:43.119Z,101244.42
2023-04-11T04:43:04.079Z,101244.33
2023-04-11T04:57:16.868Z,101233.09
2023-04-11T04:59:32.736Z,101226.86
2023-04-11T05:01:54.817Z,101229.52
2023-04-11T05:04:47.037Z,101236.18
2023-04-11T05:07:26.164Z,101232.56
2023-04-11T05:10:01.382Z,101217.44
2023-04-11T05:12:14.847Z,101217.91
2023-04-11T05:14:45.364Z,101213.20
2023-04-11T05:17:07.522Z,101212.30
2023-04-11T05:19:40.625Z,101204.21
2023-04-11T05:22:14.676Z,101206.00
2023-04-11T05:24:34.209Z,101200.88
2023-04-11T05:27:07.108Z,101203.92
2023-04-11T05:29:20.452Z,101209.88
2023-04-11T05:31:33.775Z,101218.66
2023-04-11T05:33:46.749Z,101223.48
2023-04-11T05:35:59.778Z,101228.39
2023-04-11T05:38:12.718Z,101224.29
2023-04-11T05:40:25.580Z,101219.55
2023-04-11T05:42:38.208Z,101223.60
2023-04-11T05:44:51.400Z,101226.23
2023-04-11T05:47:04.564Z,101228.44
2023-04-11T05:49:18.227Z,101224.09
2023-04-11T05:51:33.107Z,101233.64
2023-04-11T05:53:45.913Z,101235.56
2023-04-11T05:55:58.372Z,101239.81
2023-04-11T05:58:13.087Z,101242.19
2023-04-11T06:00:29.630Z,101243.08
2023-04-11T06:02:43.170Z,101240.79
2023-04-11T06:04:55.829Z,101235.10
2023-04-11T06:07:09.446Z,101235.75
2023-04-11T06:09:22.449Z,101232.84
2023-04-11T06:11:34.962Z,101239.33
2023-04-11T06:13:47.740Z,101244.08
2023-04-11T06:16:00.992Z,101245.16
2023-04-11T06:18:14.056Z,101243.71
2023-04-11T06:20:27.032Z,101249.83
2023-04-11T06:22:41.390Z,101244.44
2023-04-11T06:25:06.164Z,101245.98
2023-04-11T06:27:19.841Z,101251.67
2023-04-11T06:29:33.010Z,101259.45
2023-04-11T06:31:49.883Z,101259.48
2023-04-11T06:34:03.194Z,101266.01
2023-04-11T06:36:16.999Z,101267.25
2023-04-11T06:38:55.881Z,101264.24
2023-04-11T06:41:28.662Z,101265.41
2023-04-11T06:43:55.404Z,101271.52
2023-04-11T06:46:27.635Z,101269.88
2023-04-11T06:49:00.592Z,101253.30
2023-04-11T06:51:34.259Z,101249.10
2023-04-11T06:53:46.865Z,101242.54
2023-04-11T06:56:00.902Z,101240.47
2023-04-11T06:58:14.039Z,101236.17
2023-04-11T07:00:27.693Z,101241.69
2023-04-11T07:02:46.123Z,101254.63
2023-04-11T07:05:10.294Z,101258.04
2023-04-11T07:07:22.779Z,101256.06
2023-04-11T07:09:48.220Z,101260.49
2023-04-11T07:12:11.505Z,101265.94
2023-04-11T07:14:44.487Z,101266.67
2023-04-11T07:16:57.453Z,101273.01
2023-04-11T07:19:10.592Z,101276.66
2023-04-11T07:21:26.558Z,101288.48
2023-04-11T07:23:59.215Z,101281.91
2023-04-11T07:26:12.929Z,101287.10
2023-04-11T07:28:47.183Z,101278.96
2023-04-11T07:31:00.622Z,101278.13
2023-04-11T07:33:13.536Z,101272.58
2023-04-11T07:35:26.386Z,101270.48
2023-04-11T07:37:46.555Z,101272.09
2023-04-11T07:40:13.069Z,101271.60
2023-04-11T07:42:26.039Z,101276.24
2023-04-11T07:44:47.473Z,101275.31
2023-04-11T07:47:00.249Z,101279.44
2023-04-11T07:49:13.469Z,101282.63
2023-04-11T07:51:38.078Z,101281.24
2023-04-11T07:54:11.227Z,101289.00
2023-04-11T07:56:24.101Z,101287.52
2023-04-11T07:58:58.179Z,101296.27
2023-04-11T08:01:30.739Z,101293.52
2023-04-11T08:03:43.766Z,101291.47
2023-04-11T08:06:00.665Z,101291.94
2023-04-11T08:08:14.996Z,101288.17
2023-04-11T08:10:37.933Z,101285.92
2023-04-11T08:12:54.100Z,101283.75
2023-04-11T08:15:06.973Z,101280.61
2023-04-11T08:17:30.134Z,101279.20
2023-04-11T08:20:03.492Z,101277.67
2023-04-11T08:22:16.615Z,101281.46
2023-04-11T08:24:39.133Z,101274.14
2023-04-11T08:26:54.735Z,101276.25
2023-04-11T08:29:17.989Z,101273.73
2023-04-11T08:31:45.410Z,101272.64
2023-04-11T08:34:19.045Z,101267.18
2023-04-11T08:36:32.299Z,101269.38
2023-04-11T08:38:48.736Z,101268.61
2023-04-11T08:41:21.497Z,101269.61
2023-04-11T08:43:54.903Z,101267.76
2023-04-11T08:46:12.814Z,101269.33
2023-04-11T08:48:29.513Z,101268.36
2023-04-11T08:50:42.794Z,101274.98
2023-04-11T08:52:59.987Z,101277.45
2023-04-11T08:55:28.299Z,101273.61
2023-04-11T08:57:41.162Z,101271.52
2023-04-11T09:00:15.641Z,101269.60
2023-04-11T09:02:38.615Z,101263.16
2023-04-11T09:05:01.592Z,101265.26
2023-04-11T09:07:50.990Z,101268.02
2023-04-11T09:10:29.542Z,101268.48
2023-04-11T09:12:42.701Z,101270.27
2023-04-11T09:15:24.175Z,101268.59
2023-04-11T09:17:46.293Z,101270.88
2023-04-11T09:20:22.111Z,101271.78
2023-04-11T09:22:43.429Z,101273.27
2023-04-11T09:25:08.037Z,101274.16
2023-04-11T09:27:27.269Z,101269.21
2023-04-11T09:29:53.899Z,101273.16
2023-04-11T09:32:10.405Z,101272.77
2023-04-11T09:34:33.867Z,101276.19
2023-04-11T09:37:06.906Z,101269.18
2023-04-11T09:39:30.611Z,101271.80
2023-04-11T09:42:04.375Z,101268.41
2023-04-11T09:44:20.715Z,101262.95
2023-04-11T09:47:05.813Z,101261.84
2023-04-11T09:49:23.905Z,101261.48
2023-04-11T09:51:57.382Z,101261.20
2023-04-11T09:54:32.905Z,101261.44
2023-04-11T09:56:57.361Z,101260.84
2023-04-11T09:59:14.322Z,101259.14
2023-04-11T10:02:17.000Z,101251.23
2023-04-11T10:04:32.276Z,101251.40
2023-04-11T10:06:50.920Z,101254.52
2023-04-11T10:09:12.058Z,101252.85
2023-04-11T10:11:24.911Z,101254.89
2023-04-11T10:13:53.167Z,101255.70
2023-04-11T10:16:16.882Z,101255.63
2023-04-11T10:18:29.532Z,101257.52
2023-04-11T10:20:54.716Z,101258.29
2023-04-11T10:23:08.789Z,101258.38
2023-04-11T10:25:26.323Z,101258.16
2023-04-11T10:30:22.478Z,101258.56
2023-04-11T10:32:35.002Z,101257.05
2023-04-11T10:35:35.227Z,101253.53
2023-04-11T10:37:49.345Z,101252.83
2023-04-11T10:40:14.932Z,101254.84
2023-04-11T10:42:47.842Z,101252.40
2023-04-11T10:45:28.799Z,101251.98
2023-04-11T10:47:42.168Z,101253.75
2023-04-11T10:49:55.587Z,101260.17
2023-04-11T10:52:25.280Z,101257.48
2023-04-11T10:54:37.855Z,101259.08
2023-04-11T10:57:03.492Z,101252.73
2023-04-11T10:59:52.038Z,101248.02
2023-04-11T11:02:05.503Z,101246.34
2023-04-11T11:04:19.620Z,101252.86
2023-04-11T11:06:32.410Z,101250.23
2023-04-11T11:08:47.934Z,101253.85
2023-04-11T11:11:05.815Z,101263.94
2023-04-11T11:13:20.410Z,101261.91
2023-04-11T11:15:35.208Z,101258.41
2023-04-11T11:17:48.590Z,101259.91
2023-04-11T11:20:01.012Z,101257.52
2023-04-11T11:22:20.108Z,101260.73
2023-04-11T11:24:32.947Z,101262.11
2023-04-11T11:26:47.712Z,101261.29
2023-04-11T11:29:01.210Z,101261.85
2023-04-11T11:31:13.625Z,101258.91
2023-04-11T11:33:27.634Z,101251.80
2023-04-11T11:35:40.259Z,101252.21
2023-04-11T11:37:53.168Z,101257.13
2023-04-11T11:40:10.477Z,101255.59
2023-04-11T11:42:23.587Z,101255.08
2023-04-11T11:44:36.888Z,101249.64
2023-04-11T11:47:06.778Z,101257.33
2023-04-11T11:49:19.185Z,101259.77
2023-04-11T11:51:42.154Z,101264.77
2023-04-11T11:56:37.225Z,101262.86
2023-04-11T11:58:52.961Z,101265.85
2023-04-11T12:01:05.651Z,101263.90
2023-04-11T12:03:22.119Z,101265.08
2023-04-11T12:05:37.591Z,101267.52
2023-04-11T12:07:50.176Z,101263.92
2023-04-11T12:10:07.729Z,101268.29
2023-04-11T12:12:20.595Z,101262.00
2023-04-11T12:14:33.017Z,101261.23
2023-04-11T12:16:46.151Z,101262.42
2023-04-11T12:19:00.739Z,101259.97
2023-04-11T12:21:13.526Z,101263.79
2023-04-11T12:23:26.531Z,101264.75
2023-04-11T12:25:39.087Z,101260.82
2023-04-11T12:27:52.006Z,101267.52
2023-04-11T12:30:05.168Z,101265.78
2023-04-11T12:32:17.957Z,101267.31
2023-04-11T12:34:30.464Z,101268.61
2023-04-11T12:36:43.597Z,101264.11
2023-04-11T12:38:56.304Z,101266.45
2023-04-11T12:41:30.384Z,101267.00
2023-04-11T12:43:41.587Z,101261.69
2023-04-11T12:45:54.375Z,101258.13
2023-04-11T12:48:06.892Z,101266.77
2023-04-11T12:50:19.597Z,101265.98
2023-04-11T12:52:33.062Z,101270.34
2023-04-11T12:54:45.729Z,101270.66
2023-04-11T12:56:59.453Z,101273.10
2023-04-11T12:59:12.099Z,101275.86
2023-04-11T13:01:24.637Z,101277.81
2023-04-11T13:03:39.381Z,101279.90
2023-04-11T13:05:53.686Z,101278.36
2023-04-11T13:08:06.126Z,101276.29
2023-04-11T13:10:19.123Z,101279.39
2023-04-11T13:12:31.549Z,101275.00
2023-04-11T13:14:43.936Z,101281.09
2023-04-11T13:16:56.691Z,101280.84
2023-04-11T13:19:09.158Z,101273.60
2023-04-11T13:21:21.848Z,101286.08
2023-04-11T13:23:34.460Z,101282.44
2023-04-11T13:25:47.061Z,101283.74
2023-04-11T13:27:59.494Z,101283.14
2023-04-11T13:30:14.996Z,101290.48
2023-04-11T13:32:27.466Z,101292.25
2023-04-11T13:34:40.126Z,101296.76
2023-04-11T13:36:52.938Z,101295.67
2023-04-11T13:39:06.713Z,101295.61
2023-04-11T13:41:19.746Z,101291.39
2023-04-11T13:43:32.458Z,101295.66
2023-04-11T13:45:44.973Z,101295.33
2023-04-11T13:47:58.933Z,101301.47
2023-04-11T13:50:14.138Z,101297.05
2023-04-11T13:52:26.501Z,101302.96
2023-04-11T13:54:39.217Z,101307.51
2023-04-11T13:56:51.638Z,101312.40
2023-04-11T13:59:04.074Z,101308.29
2023-04-11T14:01:16.854Z,101313.79
2023-04-11T14:03:34.073Z,101315.46
2023-04-11T14:05:47.853Z,101322.80
2023-04-11T14:08:00.264Z,101325.73
2023-04-11T14:10:14.508Z,101331.34
2023-04-11T14:12:27.008Z,101344.09
2023-04-11T14:14:39.581Z,101336.54
2023-04-11T14:16:52.477Z,101357.41
2023-04-11T14:19:05.473Z,101351.29
2023-04-11T14:21:18.173Z,101359.77
2023-04-11T14:23:31.182Z,101363.45
2023-04-11T14:25:43.554Z,101378.38
2023-04-11T14:27:56.352Z,101380.30
2023-04-11T14:30:09.929Z,101384.61
2023-04-11T14:32:22.871Z,101390.32
2023-04-11T14:34:35.474Z,101399.65
2023-04-11T14:36:49.068Z,101405.13
2023-04-11T14:39:01.714Z,101413.41
2023-04-11T14:41:14.277Z,101415.92
2023-04-11T14:43:26.838Z,101417.81
2023-04-11T14:45:38.656Z,101427.60
2023-04-11T14:47:51.760Z,101431.10
2023-04-11T14:50:04.668Z,101435.95
2023-04-11T14:52:17.252Z,101441.36
2023-04-11T14:54:29.872Z,101442.38
2023-04-11T14:56:42.536Z,101442.52
2023-04-11T14:58:55.882Z,101448.08
2023-04-11T15:01:08.615Z,101452.11
2023-04-11T15:03:21.311Z,101457.41
2023-04-11T15:05:34.029Z,101452.31
2023-04-11T15:07:47.261Z,101458.58
2023-04-11T15:09:59.778Z,101453.89
2023-04-11T15:12:12.415Z,101467.91
2023-04-11T15:14:30.255Z,101478.04
2023-04-11T15:16:43.002Z,101486.50
2023-04-11T15:18:55.800Z,101491.60
2023-04-11T15:21:08.835Z,101491.50
2023-04-11T15:23:21.783Z,101494.55
2023-04-11T15:25:34.127Z,101495.98
2023-04-11T15:27:47.178Z,101499.41
2023-04-11T15:30:00.687Z,101506.48
2023-04-11T15:32:13.321Z,101511.46
2023-04-11T15:34:25.949Z,101516.90
2023-04-11T15:36:39.511Z,101516.67
2023-04-11T15:38:52.588Z,101522.20
2023-04-11T15:41:05.044Z,101523.56
2023-04-11T15:43:18.196Z,101523.36
2023-04-11T15:45:30.629Z,101527.35
2023-04-11T15:47:43.289Z,101529.88
2023-04-11T15:49:56.226Z,101536.22
2023-04-11T15:52:09.037Z,101536.73
2023-04-11T15:54:21.672Z,101535.58
2023-04-11T15:56:35.000Z,101543.48
2023-04-11T15:58:48.131Z,101544.40
2023-04-11T16:01:02.411Z,101547.52
2023-04-11T16:03:15.403Z,101553.72
2023-04-11T16:05:28.884Z,101545.48
2023-04-11T16:07:41.472Z,101545.59
2023-04-11T16:09:55.314Z,101547.41
2023-04-11T16:12:08.569Z,101549.36
2023-04-11T16:14:21.408Z,101556.10
2023-04-11T16:16:34.277Z,101559.27
2023-04-11T16:18:47.285Z,101567.02
2023-04-11T16:21:00.028Z,101573.16
2023-04-11T16:23:12.455Z,101575.99
2023-04-11T16:25:25.021Z,101572.27
2023-04-11T16:27:37.311Z,101570.48
2023-04-11T16:29:50.358Z,101579.91
2023-04-11T16:32:03.362Z,101575.35
2023-04-11T16:34:16.363Z,101578.18
2023-04-11T16:36:30.053Z,101574.30
2023-04-11T16:38:42.797Z,101583.07
2023-04-11T16:40:55.743Z,101584.52
2023-04-11T16:43:08.164Z,101589.64
2023-04-11T16:45:21.218Z,101593.17
2023-04-11T16:47:33.655Z,101597.91
2023-04-11T16:49:47.103Z,101600.59
2023-04-11T16:51:59.989Z,101600.73
2023-04-11T16:54:13.379Z,101606.89
2023-04-11T16:56:27.773Z,101612.48
2023-04-11T16:58:41.371Z,101616.02
2023-04-11T17:00:54.458Z,101617.54
2023-04-11T17:03:07.171Z,101623.52
2023-04-11T17:05:21.151Z,101627.08
2023-04-11T17:07:34.381Z,101628.01
2023-04-11T17:09:50.181Z,101628.18
2023-04-11T17:12:04.263Z,101630.57
2023-04-11T17:14:17.047Z,101633.51
2023-04-11T17:16:30.307Z,101636.91
2023-04-11T17:18:42.962Z,101641.98
2023-04-11T17:20:55.369Z,101639.95
2023-04-11T17:23:08.530Z,101645.09
2023-04-11T17:25:21.659Z,101642.80
2023-04-11T17:27:34.128Z,101656.05
2023-04-11T17:29:46.676Z,101663.31
2023-04-11T17:31:59.503Z,101667.08
2023-04-11T17:34:12.122Z,101670.19
2023-04-11T17:36:25.532Z,101673.46
2023-04-11T17:38:38.353Z,101678.10
2023-04-11T17:40:51.333Z,101675.59
2023-04-11T17:43:06.820Z,101678.73
2023-04-11T17:45:20.327Z,101680.70
2023-04-11T17:47:33.680Z,101684.06
2023-04-11T17:49:47.148Z,101684.23
2023-04-11T17:52:00.063Z,101687.21
2023-04-11T17:54:12.657Z,101688.00
2023-04-11T17:56:25.615Z,101691.71
2023-04-11T17:58:39.411Z,101691.63
2023-04-11T18:00:57.476Z,101693.35
2023-04-11T18:03:12.538Z,101703.46
2023-04-11T18:05:27.579Z,101699.52
2023-04-11T18:07:43.083Z,101707.16
2023-04-11T18:09:56.297Z,101705.02
2023-04-11T18:12:08.839Z,101710.07
2023-04-11T18:14:23.270Z,101708.61
2023-04-11T18:16:39.396Z,101705.60
2023-04-11T18:18:59.391Z,101701.13
2023-04-11T18:21:16.020Z,101701.13
2023-04-11T18:23:28.724Z,101704.31
2023-04-11T18:25:43.129Z,101703.43
2023-04-11T18:27:56.248Z,101705.91
2023-04-11T18:30:11.284Z,101704.44
2023-04-11T18:32:28.928Z,101701.89
2023-04-11T18:34:45.513Z,101700.74
2023-04-11T18:36:58.232Z,101704.03
2023-04-11T18:39:11.336Z,101701.71
2023-04-11T18:41:24.054Z,101703.23
2023-04-11T18:43:38.388Z,101700.31
2023-04-11T18:45:54.994Z,101702.76
2023-04-11T18:48:08.201Z,101699.91
2023-04-11T18:50:21.249Z,101702.23
2023-04-11T18:52:34.969Z,101702.35
2023-04-11T18:54:48.196Z,101706.75
2023-04-11T18:57:00.694Z,101704.04
2023-04-11T18:59:16.493Z,101702.38
2023-04-11T19:01:31.413Z,101707.27
2023-04-11T19:03:45.071Z,101704.39
2023-04-11T19:05:59.293Z,101701.88
2023-04-11T19:08:11.966Z,101705.91
2023-04-11T19:10:25.355Z,101704.46
2023-04-11T19:12:39.094Z,101704.18
2023-04-11T19:14:54.060Z,101700.19
2023-04-11T19:17:07.579Z,101701.27
2023-04-11T19:19:23.106Z,101699.19
2023-04-11T19:21:39.793Z,101700.54
2023-04-11T19:23:53.408Z,101705.77
2023-04-11T19:26:06.211Z,101705.31
2023-04-11T19:28:19.006Z,101695.86
2023-04-11T19:30:32.263Z,101696.16
2023-04-11T19:32:48.443Z,101696.84
2023-04-11T19:35:03.154Z,101697.14
2023-04-11T19:37:17.639Z,101694.16
2023-04-11T19:39:36.615Z,101703.70
2023-04-11T19:41:52.542Z,101703.63
2023-04-11T19:44:05.389Z,101701.38
2023-04-11T19:46:19.623Z,101697.83
2023-04-11T19:48:34.173Z,101698.45
2023-04-11T19:50:48.025Z,101694.48
2023-04-11T19:53:02.839Z,101696.02
2023-04-11T19:55:17.133Z,101697.91
2023-04-11T19:57:30.558Z,101688.69
2023-04-11T19:59:43.276Z,101687.39
2023-04-11T20:01:55.873Z,101683.45
2023-04-11T20:04:08.366Z,101684.79
2023-04-11T20:06:21.207Z,101687.40
2023-04-11T20:08:33.708Z,101685.91
2023-04-11T20:10:46.802Z,101683.02
2023-04-11T20:13:00.444Z,101684.66
2023-04-11T20:15:15.894Z,101684.77
2023-04-11T20:17:28.725Z,101685.45
2023-04-11T20:19:42.866Z,101684.30
2023-04-11T20:21:56.711Z,101677.85
2023-04-11T20:24:10.589Z,101677.16
2023-04-11T20:26:23.568Z,101681.57
2023-04-11T20:28:36.200Z,101676.44
2023-04-11T20:30:48.989Z,101667.64
2023-04-11T20:33:02.631Z,101667.17
2023-04-11T20:35:16.570Z,101660.04
2023-04-11T20:37:31.962Z,101659.91
2023-04-11T20:39:44.669Z,101655.85
2023-04-11T20:41:57.974Z,101655.50
2023-04-11T20:44:10.939Z,101651.31
2023-04-11T20:46:24.127Z,101648.85
2023-04-11T20:48:36.669Z,101643.34
2023-04-11T20:50:50.124Z,101641.38
2023-04-11T20:53:03.441Z,101642.46
2023-04-11T20:55:17.437Z,101637.58
2023-04-11T20:57:31.903Z,101637.29
2023-04-11T20:59:45.336Z,101637.15
2023-04-11T21:01:58.292Z,101636.19
2023-04-11T21:04:13.082Z,101638.23
2023-04-11T21:06:27.241Z,101639.79
2023-04-11T21:08:39.982Z,101635.33
2023-04-11T21:10:52.803Z,101636.10
2023-04-11T21:13:05.251Z,101638.11
2023-04-11T21:15:18.614Z,101639.23
2023-04-11T21:17:31.455Z,101632.83
2023-04-11T21:19:44.269Z,101632.02
2023-04-11T21:21:58.344Z,101626.50
2023-04-11T21:24:12.494Z,101627.96
2023-04-11T21:26:24.997Z,101626.20
2023-04-11T21:28:38.465Z,101620.15
2023-04-11T21:30:51.224Z,101618.48
2023-04-11T21:33:03.907Z,101618.66
2023-04-11T21:35:17.414Z,101620.33
2023-04-11T21:37:29.973Z,101613.14
2023-04-11T21:39:42.599Z,101612.66
2023-04-11T21:41:55.171Z,101609.48
2023-04-11T21:44:07.703Z,101608.27
2023-04-11T21:46:20.917Z,101606.42
2023-04-11T21:48:33.510Z,101601.11
2023-04-11T21:50:46.522Z,101601.01
2023-04-11T21:53:00.329Z,101593.69
2023-04-11T21:55:14.379Z,101595.67
2023-04-11T21:57:27.200Z,101593.23
2023-04-11T21:59:42.652Z,101593.02
2023-04-11T22:01:55.291Z,101593.36
2023-04-11T22:04:11.898Z,101590.01
2023-04-11T22:06:27.555Z,101590.40
2023-04-11T22:08:40.458Z,101588.44
2023-04-11T22:10:55.236Z,101591.35
2023-04-11T22:13:07.754Z,101583.39
2023-04-11T22:15:21.088Z,101581.48
2023-04-11T22:17:33.918Z,101582.51
2023-04-11T22:19:46.433Z,101579.29
2023-04-11T22:21:59.111Z,101572.95
2023-04-11T22:24:13.108Z,101574.45
2023-04-11T22:26:27.539Z,101573.10
2023-04-11T22:28:40.322Z,101567.58
2023-04-11T22:30:53.001Z,101560.89
2023-04-11T22:33:05.694Z,101554.29
2023-04-11T22:35:18.567Z,101551.05
2023-04-11T22:37:31.557Z,101547.86
2023-04-11T22:39:44.351Z,101553.54
2023-04-11T22:41:57.544Z,101544.73
2023-04-11T22:44:10.700Z,101548.77
2023-04-11T22:46:23.290Z,101542.65
2023-04-11T22:48:37.440Z,101538.10
2023-04-11T22:50:53.776Z,101534.45
2023-04-11T22:53:10.662Z,101533.55
2023-04-11T22:55:26.110Z,101535.60
2023-04-11T22:57:38.954Z,101531.55
2023-04-11T22:59:52.030Z,101525.88
2023-04-11T23:02:04.631Z,101527.17
2023-04-11T23:04:17.646Z,101526.53
2023-04-11T23:06:30.673Z,101520.54
2023-04-11T23:08:43.360Z,101526.92
2023-04-11T23:10:56.157Z,101523.45
2023-04-11T23:13:09.624Z,101527.05
2023-04-11T23:15:23.807Z,101528.44
2023-04-11T23:17:36.232Z,101529.71
2023-04-11T23:19:49.131Z,101524.18
2023-04-11T23:22:01.930Z,101519.45
2023-04-11T23:24:15.743Z,101506.38
2023-04-11T23:26:29.162Z,101507.48
2023-04-11T23:28:41.982Z,101496.24
2023-04-11T23:30:54.876Z,101498.25
2023-04-11T23:33:09.557Z,101498.15
2023-04-11T23:35:22.279Z,101496.05
2023-04-11T23:37:35.055Z,101492.25
2023-04-11T23:39:47.781Z,101487.55
2023-04-11T23:42:00.984Z,101482.89
2023-04-11T23:44:13.921Z,101488.05
2023-04-11T23:46:27.385Z,101484.20
2023-04-11T23:48:40.340Z,101482.35
2023-04-11T23:50:53.401Z,101479.66
2023-04-11T23:53:06.019Z,101476.67
2023-04-11T23:55:18.753Z,101479.10
2023-04-11T23:57:32.044Z,101471.94
2023-04-11T23:59:44.650Z,101475.39
